createdAt,value
2022-11-03T00:02:01.021Z,83.30
2022-11-03T00:04:28.284Z,64.90
2022-11-03T00:06:56.119Z,99.53
2022-11-03T00:09:24.244Z,28.70
2022-11-03T00:11:52.206Z,47.40
2022-11-03T00:14:19.811Z,32.70
2022-11-03T00:16:46.876Z,41.50
2022-11-03T00:19:16.259Z,36.95
2022-11-03T00:21:43.698Z,32.67
2022-11-03T00:24:10.999Z,23.37
2022-11-03T00:26:38.450Z,60.80
2022-11-03T00:29:10.680Z,43.90
2022-11-03T00:31:39.509Z,20.40
2022-11-03T00:34:07.413Z,37.28
2022-11-03T00:36:39.864Z,278.80
2022-11-03T00:39:07.510Z,222.07
2022-11-03T00:41:34.739Z,159.60
2022-11-03T00:44:01.927Z,40.83
2022-11-03T00:46:30.492Z,144.33
2022-11-03T00:48:57.598Z,164.30
2022-11-03T00:51:27.295Z,272.03
2022-11-03T00:53:59.233Z,185.67
2022-11-03T00:56:28.864Z,113.13
2022-11-03T00:58:57.869Z,110.25
2022-11-03T01:01:27.617Z,59.97
2022-11-03T01:04:15.637Z,249.97
2022-11-03T01:06:51.486Z,88.90
2022-11-03T01:09:19.442Z,205.98
2022-11-03T01:12:15.296Z,65.83
2022-11-03T01:14:45.454Z,60.40
2022-11-03T01:17:15.196Z,55.00
2022-11-03T01:19:42.245Z,65.30
2022-11-03T01:22:10.960Z,36.53
2022-11-03T01:24:42.169Z,63.53
2022-11-03T01:27:15.614Z,52.50
2022-11-03T01:29:42.822Z,34.17
2022-11-03T01:32:10.473Z,21.33
2022-11-03T01:34:38.077Z,25.80
2022-11-03T01:37:05.489Z,33.97
2022-11-03T01:39:32.502Z,21.53
2022-11-03T01:41:59.476Z,22.57
2022-11-03T01:44:32.763Z,20.07
2022-11-03T01:47:15.274Z,16.03
2022-11-03T01:49:54.670Z,20.05
2022-11-03T01:52:42.933Z,17.73
2022-11-03T01:55:23.263Z,24.88
2022-11-03T01:58:02.738Z,25.00
2022-11-03T02:00:29.712Z,24.77
2022-11-03T02:02:57.084Z,27.97
2022-11-03T02:05:25.570Z,25.23
2022-11-03T02:10:41.557Z,31.97
2022-11-03T02:13:21.925Z,41.23
2022-11-03T02:15:56.111Z,25.60
2022-11-03T02:18:29.326Z,23.83
2022-11-03T02:21:16.128Z,28.53
2022-11-03T02:24:02.867Z,24.23
2022-11-03T02:26:30.546Z,24.90
2022-11-03T02:28:57.694Z,29.67
2022-11-03T02:31:27.702Z,28.53
2022-11-03T02:34:01.869Z,25.23
2022-11-03T02:36:41.179Z,25.13
2022-11-03T02:39:20.748Z,63.13
2022-11-03T02:41:49.229Z,37.30
2022-11-03T02:44:20.571Z,30.20
2022-11-03T02:46:50.853Z,24.70
2022-11-03T02:49:17.884Z,29.33
2022-11-03T02:51:44.844Z,31.03
2022-11-03T02:54:29.322Z,29.47
2022-11-03T02:57:12.236Z,29.43
2022-11-03T02:59:46.565Z,33.93
2022-11-03T03:02:22.255Z,33.70
2022-11-03T03:04:56.143Z,31.63
2022-11-03T03:07:29.458Z,30.30
2022-11-03T03:09:56.393Z,28.20
2022-11-03T03:12:24.423Z,29.40
2022-11-03T03:14:52.531Z,27.53
2022-11-03T03:17:25.994Z,26.00
2022-11-03T03:20:02.557Z,28.83
2022-11-03T03:22:32.482Z,34.70
2022-11-03T03:25:26.724Z,87.70
2022-11-03T03:28:06.565Z,117.53
2022-11-03T03:30:36.270Z,220.07
2022-11-03T03:33:07.534Z,306.10
2022-11-03T03:35:38.454Z,192.87
2022-11-03T03:38:13.994Z,101.50
2022-11-03T03:40:44.145Z,217.07
2022-11-03T03:43:14.253Z,42.83
2022-11-03T03:45:43.328Z,74.50
2022-11-03T03:48:10.550Z,33.50
2022-11-03T03:50:39.942Z,29.00
2022-11-03T03:53:11.623Z,29.57
2022-11-03T03:55:44.206Z,241.80
2022-11-03T03:58:13.792Z,292.80
2022-11-03T04:00:41.907Z,90.93
2022-11-03T04:03:23.615Z,28.97
2022-11-03T04:05:51.461Z,67.97
2022-11-03T04:08:18.710Z,153.37
2022-11-03T04:11:04.943Z,255.60
2022-11-03T04:13:52.223Z,229.50
2022-11-03T04:16:37.754Z,243.53
2022-11-03T04:19:23.329Z,263.40
2022-11-03T04:22:08.977Z,263.47
2022-11-03T04:24:35.976Z,184.27
2022-11-03T04:27:17.981Z,209.00
2022-11-03T04:29:45.024Z,215.90
2022-11-03T04:32:17.754Z,190.10
2022-11-03T04:34:48.589Z,141.13
2022-11-03T04:37:16.921Z,124.63
2022-11-03T04:42:22.653Z,115.13
2022-11-03T04:44:50.166Z,180.50
2022-11-03T04:47:18.251Z,109.47
2022-11-03T04:49:47.325Z,73.83
2022-11-03T04:52:20.010Z,59.47
2022-11-03T04:54:49.444Z,44.57
2022-11-03T04:57:17.579Z,108.63
2022-11-03T04:59:49.090Z,81.00
2022-11-03T05:02:20.120Z,55.17
2022-11-03T05:04:47.544Z,58.20
2022-11-03T05:07:34.644Z,63.30
2022-11-03T05:10:02.533Z,90.40
2022-11-03T05:12:31.034Z,56.10
2022-11-03T05:14:59.119Z,43.80
2022-11-03T05:17:28.017Z,53.00
2022-11-03T05:20:03.900Z,34.30
2022-11-03T05:22:37.845Z,69.07
2022-11-03T05:25:40.517Z,149.57
2022-11-03T05:28:33.689Z,126.97
2022-11-03T05:31:01.243Z,73.60
2022-11-03T05:33:30.696Z,147.47
2022-11-03T05:36:02.320Z,280.50
2022-11-03T05:38:33.644Z,62.23
2022-11-03T05:41:01.470Z,157.37
2022-11-03T05:43:30.036Z,284.90
2022-11-03T05:46:02.138Z,205.83
2022-11-03T05:48:35.368Z,207.20
2022-11-03T05:51:13.605Z,182.80
2022-11-03T05:53:43.482Z,162.57
2022-11-03T05:56:19.041Z,230.30
2022-11-03T05:58:48.453Z,89.43
2022-11-03T06:01:35.741Z,146.43
2022-11-03T06:04:23.104Z,155.90
2022-11-03T06:07:02.322Z,67.87
2022-11-03T06:09:32.361Z,161.10
2022-11-03T06:12:01.743Z,97.23
2022-11-03T06:14:31.387Z,138.73
2022-11-03T06:17:02.062Z,207.20
2022-11-03T06:19:39.704Z,159.17
2022-11-03T06:22:17.788Z,170.97
2022-11-03T06:24:45.847Z,162.93
2022-11-03T06:27:24.129Z,150.37
2022-11-03T06:29:57.390Z,147.90
2022-11-03T06:32:24.738Z,164.07
2022-11-03T06:34:57.737Z,166.63
2022-11-03T06:37:34.862Z,334.23
2022-11-03T06:40:10.928Z,115.70
2022-11-03T06:42:41.466Z,103.17
2022-11-03T06:45:25.852Z,111.63
2022-11-03T06:47:54.031Z,120.30
2022-11-03T06:50:33.497Z,86.50
2022-11-03T06:53:04.525Z,114.30
2022-11-03T06:55:34.102Z,77.53
2022-11-03T06:58:14.417Z,171.57
2022-11-03T07:00:45.894Z,145.23
2022-11-03T07:03:25.507Z,149.27
2022-11-03T07:05:59.260Z,153.00
2022-11-03T07:08:31.427Z,228.57
2022-11-03T07:11:05.262Z,127.27
2022-11-03T07:13:34.268Z,131.73
2022-11-03T07:16:01.349Z,165.93
2022-11-03T07:18:31.076Z,183.63
2022-11-03T07:20:59.055Z,175.40
2022-11-03T07:23:30.344Z,138.30
2022-11-03T07:26:02.200Z,210.50
2022-11-03T07:28:36.691Z,175.83
2022-11-03T07:31:16.634Z,159.13
2022-11-03T07:33:44.089Z,205.00
2022-11-03T07:36:18.794Z,109.87
2022-11-03T07:38:50.485Z,146.47
2022-11-03T07:41:20.842Z,137.90
2022-11-03T07:43:54.881Z,69.63
2022-11-03T07:46:23.218Z,78.10
2022-11-03T07:49:01.346Z,54.97
2022-11-03T07:51:32.273Z,59.20
2022-11-03T07:54:08.958Z,49.23
2022-11-03T07:57:06.177Z,92.00
2022-11-03T07:59:39.362Z,88.47
2022-11-03T08:02:33.588Z,83.33
2022-11-03T08:05:01.076Z,78.20
2022-11-03T08:07:28.776Z,121.90
2022-11-03T08:09:56.417Z,80.77
2022-11-03T08:12:23.890Z,39.50
2022-11-03T08:14:50.890Z,35.43
2022-11-03T08:17:17.849Z,35.80
2022-11-03T08:19:44.802Z,18.93
2022-11-03T08:22:11.722Z,19.17
2022-11-03T08:24:38.684Z,17.77
2022-11-03T08:27:05.707Z,16.77
2022-11-03T08:29:32.736Z,17.93
2022-11-03T08:31:59.758Z,14.53
2022-11-03T08:34:26.725Z,13.13
2022-11-03T08:36:53.690Z,13.53
2022-11-03T08:39:20.612Z,12.57
2022-11-03T08:41:47.550Z,16.47
2022-11-03T08:44:14.469Z,17.73
2022-11-03T08:46:41.463Z,32.83
2022-11-03T08:49:08.499Z,33.57
2022-11-03T08:51:37.892Z,19.53
2022-11-03T08:54:08.453Z,22.97
2022-11-03T08:56:35.393Z,14.07
2022-11-03T08:59:02.402Z,14.73
2022-11-03T09:01:29.412Z,13.83
2022-11-03T09:03:56.444Z,12.57
2022-11-03T09:06:23.470Z,17.77
2022-11-03T09:11:37.437Z,14.80
2022-11-03T09:14:04.447Z,15.17
2022-11-03T09:16:31.397Z,13.43
2022-11-03T09:18:58.557Z,16.87
2022-11-03T09:21:25.497Z,10.63
2022-11-03T09:23:52.488Z,10.53
2022-11-03T09:26:19.432Z,13.00
2022-11-03T09:28:46.437Z,11.03
2022-11-03T09:31:13.375Z,11.83
2022-11-03T09:33:40.353Z,12.40
2022-11-03T09:36:07.602Z,10.93
2022-11-03T09:38:34.523Z,10.90
2022-11-03T09:41:06.705Z,8.70
2022-11-03T09:43:41.042Z,8.77
2022-11-03T09:46:08.084Z,6.57
2022-11-03T09:48:35.029Z,4.72
2022-11-03T09:51:02.132Z,7.13
2022-11-03T09:53:31.051Z,6.38
2022-11-03T09:55:58.147Z,9.00
2022-11-03T09:58:26.072Z,3.35
2022-11-03T10:00:53.123Z,8.52
2022-11-03T10:03:20.909Z,12.27
2022-11-03T10:05:48.316Z,9.20
2022-11-03T10:08:24.326Z,9.60
2022-11-03T10:10:52.212Z,7.55
2022-11-03T10:13:24.161Z,8.07
2022-11-03T10:15:51.171Z,8.45
2022-11-03T10:18:19.151Z,10.38
2022-11-03T10:20:46.390Z,9.32
2022-11-03T10:23:13.339Z,8.32
2022-11-03T10:25:45.166Z,7.30
2022-11-03T10:28:21.028Z,12.05
2022-11-03T10:33:52.325Z,10.43
2022-11-03T10:36:19.277Z,9.95
2022-11-03T10:38:47.995Z,8.63
2022-11-03T10:41:23.145Z,12.13
2022-11-03T10:44:02.517Z,14.53
2022-11-03T10:46:49.087Z,15.43
2022-11-03T10:49:20.519Z,13.20
2022-11-03T10:51:50.835Z,15.47
2022-11-03T10:54:20.539Z,14.50
2022-11-03T10:56:48.615Z,14.93
2022-11-03T10:59:22.731Z,16.60
2022-11-03T11:01:49.874Z,17.93
2022-11-03T11:04:18.928Z,17.23
2022-11-03T11:06:46.687Z,23.60
2022-11-03T11:09:33.549Z,18.90
2022-11-03T11:12:24.187Z,13.73
2022-11-03T11:15:02.823Z,10.07
2022-11-03T11:17:50.081Z,10.47
2022-11-03T11:20:21.511Z,5.63
2022-11-03T11:22:50.179Z,11.17
2022-11-03T11:25:20.075Z,12.23
2022-11-03T11:27:55.605Z,19.57
2022-11-03T11:30:30.714Z,17.10
2022-11-03T11:33:01.416Z,16.10
2022-11-03T11:35:28.321Z,14.80
2022-11-03T11:37:55.311Z,16.33
2022-11-03T11:40:25.304Z,18.15
2022-11-03T11:43:04.814Z,14.23
2022-11-03T11:46:10.011Z,17.37
2022-11-03T11:48:37.061Z,14.00
2022-11-03T11:51:08.471Z,8.97
2022-11-03T11:53:42.110Z,10.50
2022-11-03T11:56:14.185Z,9.13
2022-11-03T11:58:54.116Z,6.40
2022-11-03T12:01:27.859Z,8.65
2022-11-03T12:04:16.412Z,8.10
2022-11-03T12:09:23.059Z,9.37
2022-11-03T12:11:56.148Z,6.40
2022-11-03T12:14:24.325Z,6.93
2022-11-03T12:16:52.007Z,8.63
2022-11-03T12:19:39.322Z,8.23
2022-11-03T12:22:29.341Z,11.50
2022-11-03T12:25:01.322Z,8.87
2022-11-03T12:27:28.984Z,7.33
2022-11-03T12:29:57.908Z,8.13
2022-11-03T12:32:32.955Z,13.17
2022-11-03T12:35:03.133Z,7.87
2022-11-03T12:37:30.133Z,10.30
2022-11-03T12:39:57.072Z,7.90
2022-11-03T12:42:25.357Z,13.17
2022-11-03T12:44:53.155Z,9.03
2022-11-03T12:47:20.686Z,8.40
2022-11-03T12:49:47.745Z,13.30
2022-11-03T12:52:15.130Z,13.43
2022-11-03T12:54:42.503Z,9.83
2022-11-03T12:57:09.815Z,12.10
2022-11-03T12:59:36.871Z,12.83
2022-11-03T13:02:04.142Z,13.57
2022-11-03T13:04:31.323Z,11.03
2022-11-03T13:06:58.261Z,13.23
2022-11-03T13:09:25.279Z,13.20
2022-11-03T13:12:10.782Z,15.10
2022-11-03T13:14:37.763Z,13.27
2022-11-03T13:17:04.784Z,18.87
2022-11-03T13:19:31.814Z,13.03
2022-11-03T13:21:58.841Z,15.90
2022-11-03T13:24:25.855Z,16.63
2022-11-03T13:26:52.895Z,18.40
2022-11-03T13:29:19.865Z,13.40
2022-11-03T13:31:46.910Z,11.67
2022-11-03T13:34:13.910Z,16.20
2022-11-03T13:36:40.877Z,13.67
2022-11-03T13:39:07.826Z,11.33
2022-11-03T13:41:34.784Z,17.27
2022-11-03T13:44:01.717Z,13.17
2022-11-03T13:46:28.665Z,10.83
2022-11-03T13:51:42.692Z,20.10
2022-11-03T13:59:43.659Z,13.03
2022-11-03T14:04:58.249Z,15.67
2022-11-03T14:07:25.218Z,15.50
2022-11-03T14:09:52.247Z,14.30
2022-11-03T14:12:31.202Z,13.73
2022-11-03T14:15:06.269Z,17.97
2022-11-03T14:17:33.389Z,20.93
2022-11-03T14:20:04.062Z,13.93
2022-11-03T14:22:32.133Z,12.73
2022-11-03T14:24:59.448Z,13.33
2022-11-03T14:27:26.570Z,19.40
2022-11-03T14:29:53.748Z,18.37
2022-11-03T14:32:21.622Z,18.43
2022-11-03T14:34:49.017Z,16.17
2022-11-03T14:37:16.415Z,16.97
2022-11-03T14:39:43.454Z,14.33
2022-11-03T14:42:16.654Z,17.90
2022-11-03T14:44:45.451Z,19.97
2022-11-03T14:47:23.309Z,15.27
2022-11-03T14:49:50.341Z,16.43
2022-11-03T14:52:18.021Z,19.63
2022-11-03T14:54:45.071Z,18.17
2022-11-03T14:57:12.048Z,19.83
2022-11-03T14:59:39.059Z,14.30
2022-11-03T15:02:06.401Z,18.83
2022-11-03T15:04:33.638Z,20.90
2022-11-03T15:07:00.713Z,16.90
2022-11-03T15:09:27.716Z,15.23
2022-11-03T15:11:54.707Z,15.47
2022-11-03T15:14:21.742Z,20.33
2022-11-03T15:16:48.671Z,18.47
2022-11-03T15:19:15.791Z,17.43
2022-11-03T15:21:42.870Z,18.30
2022-11-03T15:26:56.993Z,20.10
2022-11-03T15:29:24.174Z,17.53
2022-11-03T15:31:51.274Z,19.40
2022-11-03T15:34:18.430Z,17.27
2022-11-03T15:36:45.387Z,21.53
2022-11-03T15:39:13.471Z,19.93
2022-11-03T15:41:40.795Z,20.57
2022-11-03T15:44:08.059Z,19.70
2022-11-03T15:46:35.611Z,19.67
2022-11-03T15:49:03.722Z,18.87
2022-11-03T15:51:30.851Z,18.53
2022-11-03T15:53:59.084Z,21.10
2022-11-03T15:56:29.907Z,48.23
2022-11-03T15:58:56.998Z,37.30
2022-11-03T16:01:24.177Z,18.70
2022-11-03T16:03:51.300Z,19.00
2022-11-03T16:06:18.241Z,18.90
2022-11-03T16:08:45.236Z,25.60
2022-11-03T16:11:12.266Z,25.33
2022-11-03T16:13:39.682Z,19.63
2022-11-03T16:16:07.185Z,25.07
2022-11-03T16:18:34.750Z,15.97
2022-11-03T16:21:01.824Z,15.67
2022-11-03T16:23:28.752Z,21.83
2022-11-03T16:25:55.819Z,22.10
2022-11-03T16:28:23.414Z,28.57
2022-11-03T16:30:54.332Z,21.57
2022-11-03T16:33:21.754Z,17.40
2022-11-03T16:35:48.950Z,18.17
2022-11-03T16:38:16.164Z,19.90
2022-11-03T16:40:43.638Z,20.23
2022-11-03T16:43:11.010Z,16.60
2022-11-03T16:45:38.674Z,18.67
2022-11-03T16:48:06.656Z,23.47
2022-11-03T16:50:34.332Z,24.23
2022-11-03T16:53:01.460Z,19.43
2022-11-03T16:55:28.457Z,20.23
2022-11-03T16:57:55.444Z,24.83
2022-11-03T17:00:24.108Z,24.30
2022-11-03T17:02:51.195Z,23.73
2022-11-03T17:05:20.743Z,22.83
2022-11-03T17:07:53.210Z,22.37
2022-11-03T17:10:21.695Z,22.27
2022-11-03T17:12:49.081Z,18.97
2022-11-03T17:15:17.349Z,23.63
2022-11-03T17:17:44.527Z,19.60
2022-11-03T17:20:12.555Z,19.90
2022-11-03T17:22:40.026Z,20.73
2022-11-03T17:25:09.620Z,22.43
2022-11-03T17:27:46.251Z,21.10
2022-11-03T17:30:26.574Z,21.30
2022-11-03T17:32:58.583Z,20.57
2022-11-03T17:35:41.818Z,21.57
2022-11-03T17:38:14.936Z,18.77
2022-11-03T17:40:44.413Z,18.77
2022-11-03T17:43:22.546Z,22.93
2022-11-03T17:45:49.873Z,18.37
2022-11-03T17:48:16.871Z,22.67
2022-11-03T17:50:49.048Z,17.63
2022-11-03T17:53:22.665Z,23.20
2022-11-03T17:56:08.772Z,25.77
2022-11-03T17:58:45.904Z,19.23
2022-11-03T18:01:19.284Z,21.27
2022-11-03T18:03:46.282Z,25.33
2022-11-03T18:06:19.428Z,18.80
2022-11-03T18:08:47.986Z,24.00
2022-11-03T18:11:38.267Z,20.20
2022-11-03T18:14:05.758Z,18.90
2022-11-03T18:16:32.856Z,22.40
2022-11-03T18:19:00.099Z,18.30
2022-11-03T18:21:28.680Z,16.97
2022-11-03T18:23:56.114Z,22.50
2022-11-03T18:26:25.730Z,21.33
2022-11-03T18:28:53.991Z,18.53
2022-11-03T18:31:34.061Z,16.93
2022-11-03T18:34:05.335Z,19.47
2022-11-03T18:36:34.274Z,15.93
2022-11-03T18:39:02.546Z,20.33
2022-11-03T18:41:39.307Z,16.23
2022-11-03T18:44:15.300Z,23.67
2022-11-03T18:46:42.956Z,24.13
2022-11-03T18:49:09.934Z,16.40
2022-11-03T18:51:37.240Z,20.73
2022-11-03T18:54:04.801Z,18.33
2022-11-03T18:56:35.695Z,18.97
2022-11-03T18:59:05.483Z,16.57
2022-11-03T19:01:32.600Z,15.07
2022-11-03T19:03:59.598Z,19.80
2022-11-03T19:06:26.890Z,22.53
2022-11-03T19:08:59.599Z,18.50
2022-11-03T19:11:27.240Z,20.53
2022-11-03T19:13:55.093Z,17.90
2022-11-03T19:16:24.026Z,22.53
2022-11-03T19:18:52.495Z,17.27
2022-11-03T19:21:24.172Z,22.90
2022-11-03T19:23:58.053Z,18.60
2022-11-03T19:26:58.497Z,16.53
2022-11-03T19:29:29.746Z,17.07
2022-11-03T19:31:57.300Z,16.63
2022-11-03T19:34:27.338Z,20.43
2022-11-03T19:36:54.658Z,17.43
2022-11-03T19:39:30.861Z,12.30
2022-11-03T19:42:20.533Z,21.33
2022-11-03T19:44:49.506Z,18.17
2022-11-03T19:47:19.711Z,16.07
2022-11-03T19:49:47.415Z,20.87
2022-11-03T19:52:15.883Z,19.03
2022-11-03T19:54:46.058Z,20.07
2022-11-03T19:57:14.277Z,20.67
2022-11-03T19:59:43.143Z,16.80
2022-11-03T20:02:11.405Z,15.67
2022-11-03T20:04:39.150Z,11.80
2022-11-03T20:07:06.752Z,17.90
2022-11-03T20:09:34.706Z,18.93
2022-11-03T20:12:04.878Z,21.67
2022-11-03T20:14:31.973Z,18.00
2022-11-03T20:17:10.327Z,13.27
2022-11-03T20:19:37.381Z,15.43
2022-11-03T20:22:05.798Z,16.67
2022-11-03T20:24:33.210Z,14.63
2022-11-03T20:27:01.170Z,18.00
2022-11-03T20:29:34.529Z,20.30
2022-11-03T20:32:01.790Z,19.00
2022-11-03T20:34:28.795Z,20.67
2022-11-03T20:36:56.189Z,22.23
2022-11-03T20:39:24.269Z,18.63
2022-11-03T20:41:53.635Z,16.43
2022-11-03T20:44:20.611Z,18.47
2022-11-03T20:46:47.561Z,22.37
2022-11-03T20:49:14.532Z,30.80
2022-11-03T20:51:43.758Z,20.07
2022-11-03T20:54:17.789Z,16.37
2022-11-03T20:56:45.486Z,17.23
2022-11-03T21:01:43.233Z,17.87
2022-11-03T21:04:18.482Z,13.70
2022-11-03T21:06:45.983Z,17.23
2022-11-03T21:09:15.731Z,16.57
2022-11-03T21:11:43.519Z,18.80
2022-11-03T21:14:26.669Z,24.53
2022-11-03T21:17:12.441Z,21.63
2022-11-03T21:19:42.328Z,17.13
2022-11-03T21:22:50.793Z,17.70
2022-11-03T21:25:16.997Z,20.37
2022-11-03T21:27:44.284Z,17.40
2022-11-03T21:30:12.608Z,28.47
2022-11-03T21:32:39.891Z,21.23
2022-11-03T21:35:08.150Z,25.93
2022-11-03T21:37:35.177Z,19.83
2022-11-03T21:40:02.124Z,23.00
2022-11-03T21:42:47.829Z,21.03
2022-11-03T21:45:15.831Z,17.03
2022-11-03T21:48:02.707Z,24.20
2022-11-03T21:50:29.793Z,20.63
2022-11-03T21:52:58.870Z,20.80
2022-11-03T21:55:25.948Z,19.53
2022-11-03T21:57:52.892Z,21.67
2022-11-03T22:00:19.949Z,20.93
2022-11-03T22:02:46.946Z,18.27
2022-11-03T22:05:13.991Z,21.47
2022-11-03T22:07:41.150Z,21.63
2022-11-03T22:10:08.525Z,23.57
2022-11-03T22:12:35.496Z,25.43
2022-11-03T22:15:21.148Z,25.37
2022-11-03T22:17:48.109Z,34.50
2022-11-03T22:20:33.729Z,24.43
2022-11-03T22:23:19.932Z,20.43
2022-11-03T22:26:08.005Z,23.23
2022-11-03T22:28:34.977Z,32.77
2022-11-03T22:31:23.263Z,24.27
2022-11-03T22:34:08.906Z,26.27
2022-11-03T22:36:35.848Z,24.37
2022-11-03T22:39:21.482Z,26.53
2022-11-03T22:42:07.250Z,25.90
2022-11-03T22:44:52.975Z,20.13
2022-11-03T22:47:20.000Z,22.23
2022-11-03T22:49:46.913Z,22.33
2022-11-03T22:52:14.029Z,17.67
2022-11-03T22:54:40.985Z,17.70
2022-11-03T22:57:11.411Z,21.13
2022-11-03T22:59:38.398Z,25.90
2022-11-03T23:02:05.471Z,21.33
2022-11-03T23:04:32.566Z,19.57
2022-11-03T23:06:59.503Z,19.03
2022-11-03T23:09:26.482Z,20.97
2022-11-03T23:11:53.461Z,17.43
2022-11-03T23:14:21.057Z,16.03
2022-11-03T23:16:48.016Z,19.70
2022-11-03T23:19:34.792Z,19.73
2022-11-03T23:22:01.933Z,20.43
2022-11-03T23:24:47.529Z,17.23
2022-11-03T23:27:14.518Z,27.60
2022-11-03T23:29:41.573Z,20.77
2022-11-03T23:32:08.966Z,21.70
2022-11-03T23:34:35.944Z,27.37
2022-11-03T23:37:03.148Z,20.10
2022-11-03T23:39:30.112Z,17.27
2022-11-03T23:41:57.187Z,19.33
2022-11-03T23:44:24.173Z,20.73
2022-11-03T23:47:09.864Z,23.43
2022-11-03T23:49:36.833Z,20.57
2022-11-03T23:52:03.937Z,18.30
2022-11-03T23:54:31.006Z,19.77
2022-11-03T23:57:16.378Z,17.63
